Time;durP1;ratioP1;P1;durP2;ratioP2;P2;SDS_P1;SDS_P2;PMS_P1;PMS_P2;Temp;Humidity;BMP_temperature;BMP_pressure;BME280_temperature;BME280_humidity;BME280_pressure;Samples;Min_cycle;Max_cycle;Signal;HPM_P1;HPM_P2
2022/10/12 00:00:34;;;;;;;;;11.75;10.75;;;;;15.85;50.59;101760.88;2109407;27;46328;-60
2022/10/12 00:01:34;;;;;;;;;15.25;13.75;;;;;15.85;50.41;101764.44;2107752;27;45555;-61
2022/10/12 00:02:35;;;;;;;;;16.50;12.50;;;;;15.85;50.13;101769.78;2104624;27;46899;-61
2022/10/12 00:03:36;;;;;;;;;12.75;11.25;;;;;15.85;50.41;101769.78;2116982;27;45552;-62
2022/10/12 00:04:36;;;;;;;;;12.40;12.00;;;;;15.84;50.09;101767.16;2112941;27;46742;-62
2022/10/12 00:05:37;;;;;;;;;11.50;11.50;;;;;15.84;50.27;101761.81;2119243;27;46537;-62
2022/10/12 00:06:37;;;;;;;;;14.75;12.00;;;;;15.82;50.05;101758.31;2112080;27;46355;-62
2022/10/12 00:07:37;;;;;;;;;14.00;12.00;;;;;15.80;49.95;101766.38;2117492;27;46018;-62
2022/10/12 00:08:39;;;;;;;;;12.25;11.50;;;;;15.81;50.27;101772.59;2105151;27;47208;-63
2022/10/12 00:09:40;;;;;;;;;11.60;11.20;;;;;15.81;50.49;101767.25;2109614;27;46738;-62
2022/10/12 00:10:42;;;;;;;;;9.25;9.25;;;;;15.80;50.25;101768.19;2119736;27;45553;-60
2022/10/12 00:11:42;;;;;;;;;8.40;7.00;;;;;15.81;50.25;101769.94;2117424;27;46966;-62
2022/10/12 00:12:43;;;;;;;;;12.75;10.25;;;;;15.81;50.16;101770.81;2114866;27;46439;-60
2022/10/12 00:13:44;;;;;;;;;16.75;13.00;;;;;15.79;50.50;101769.09;2118854;27;46985;-62
2022/10/12 00:14:44;;;;;;;;;14.00;13.50;;;;;15.78;50.46;101767.34;2118669;27;46833;-61
2022/10/12 00:15:45;;;;;;;;;9.50;8.25;;;;;15.77;50.13;101765.59;2111802;27;46285;-60
2022/10/12 00:16:45;;;;;;;;;13.50;11.25;;;;;15.75;50.26;101764.72;2109780;27;46774;-61
2022/10/12 00:17:45;;;;;;;;;14.00;12.00;;;;;15.72;50.45;101768.38;2115498;27;46352;-60
2022/10/12 00:18:54;;;;;;;;;13.75;11.75;;;;;15.72;50.18;101764.81;2113663;27;46304;-60
2022/10/12 00:19:54;;;;;;;;;10.40;9.60;;;;;15.72;50.15;101765.69;2118591;27;46460;-63
2022/10/12 00:21:03;;;;;;;;;12.50;11.75;;;;;15.71;50.41;101763.06;2111097;27;46226;-60
2022/10/12 00:22:03;;;;;;;;;14.00;13.00;;;;;15.70;50.65;101762.19;2111347;27;46364;-61
2022/10/12 00:23:04;;;;;;;;;12.00;11.00;;;;;15.69;50.39;101764.91;2114117;27;45550;-62
2022/10/12 00:24:04;;;;;;;;;14.00;12.75;;;;;15.69;50.59;101767.56;2116921;27;46173;-60
2022/10/12 00:25:05;;;;;;;;;10.75;10.75;;;;;15.69;50.58;101762.22;2097312;28;46881;-60
2022/10/12 00:26:26;;;;;;;;;12.25;11.25;;;;;15.70;50.61;101758.63;2102294;27;46371;-62
2022/10/12 00:27:27;;;;;;;;;14.80;13.80;;;;;15.69;50.27;101763.09;2119601;27;45247;-61
2022/10/12 00:28:27;;;;;;;;;10.50;10.50;;;;;15.70;50.68;101767.53;2112444;27;47414;-59
2022/10/12 00:29:27;;;;;;;;;12.50;11.00;;;;;15.69;50.29;101770.25;2121393;27;45240;-61
2022/10/12 00:30:28;;;;;;;;;13.00;11.50;;;;;15.67;50.57;101770.28;2121958;27;44976;-60
2022/10/12 00:31:30;;;;;;;;;15.75;13.50;;;;;15.66;50.61;101770.34;2113178;27;46858;-62
2022/10/12 00:32:30;;;;;;;;;10.80;10.80;;;;;15.64;50.53;101765.03;2111948;27;46696;-63
2022/10/12 00:33:30;;;;;;;;;11.00;11.00;;;;;15.65;50.86;101765.91;2123091;27;46505;-61
2022/10/12 00:34:30;;;;;;;;;12.00;11.00;;;;;15.63;50.51;101768.63;2116789;27;45542;-62
2022/10/12 00:35:31;;;;;;;;;12.50;12.50;;;;;15.65;50.49;101765.91;2122200;27;46715;-62
2022/10/12 00:36:34;;;;;;;;;13.25;12.75;;;;;15.65;50.35;101766.78;2121095;27;46250;-61
2022/10/12 00:37:34;;;;;;;;;14.20;12.20;;;;;15.64;50.58;101764.16;2119032;27;46524;-61
2022/10/12 00:38:35;;;;;;;;;10.75;10.00;;;;;15.64;50.83;101765.03;2120626;27;46189;-62
2022/10/12 00:39:35;;;;;;;;;13.75;11.25;;;;;15.64;50.46;101766.84;2120618;27;46955;-62
2022/10/12 00:40:35;;;;;;;;;11.75;10.75;;;;;15.62;50.33;101761.50;2121778;27;46932;-63
2022/10/12 00:41:41;;;;;;;;;12.50;12.25;;;;;15.60;50.53;101761.53;2118617;27;45686;-61
2022/10/12 00:42:41;;;;;;;;;10.40;9.60;;;;;15.62;50.88;101760.63;2119379;27;46760;-62
2022/10/12 00:43:44;;;;;;;;;10.25;9.00;;;;;15.62;50.67;101765.97;2110891;27;46808;-63
2022/10/12 00:44:46;;;;;;;;;15.40;12.60;;;;;15.58;50.64;101760.66;2109754;27;47231;-62
2022/10/12 00:45:47;;;;;;;;;10.75;10.75;;;;;15.56;50.53;101759.84;2120075;27;46207;-61
2022/10/12 00:46:47;;;;;;;;;12.00;10.25;;;;;15.56;51.13;101764.31;2119197;27;47058;-62
2022/10/12 00:47:51;;;;;;;;;8.67;8.67;;;;;15.55;50.85;101763.44;2118322;27;45578;-60
2022/10/12 00:49:00;;;;;;;;;11.40;11.40;;;;;15.54;50.94;101775.06;2114849;27;46403;-61
2022/10/12 00:50:12;;;;;;;;;9.25;9.25;;;;;15.52;50.63;101768.00;2122258;27;46429;-62
2022/10/12 00:51:15;;;;;;;;;9.75;9.75;;;;;15.51;51.27;101769.78;2118564;27;46557;-60
2022/10/12 00:52:20;;;;;;;;;14.00;12.20;;;;;15.48;50.87;101761.81;2116166;27;47064;-63
2022/10/12 00:53:27;;;;;;;;;14.50;11.50;;;;;15.48;50.97;101771.63;2117740;27;46814;-62
2022/10/12 00:54:31;;;;;;;;;10.80;10.00;;;;;15.48;51.23;101766.28;2114037;27;46353;-62
2022/10/12 00:55:37;;;;;;;;;10.00;10.00;;;;;15.46;50.71;101763.66;2119335;27;46765;-62
2022/10/12 00:56:40;;;;;;;;;9.75;9.00;;;;;15.46;51.36;101766.31;2120905;27;46816;-61
2022/10/12 00:57:40;;;;;;;;;10.75;9.50;;;;;15.46;51.23;101769.00;2113105;27;46562;-61
2022/10/12 00:58:41;;;;;;;;;11.50;10.75;;;;;15.46;51.31;101762.78;2109856;27;46383;-62
2022/10/12 01:00:01;;;;;;;;;13.67;10.00;;;;;15.45;51.00;101771.72;2119374;27;46522;-59
2022/10/12 01:01:04;;;;;;;;;8.75;7.75;;;;;15.42;50.89;101769.13;2117887;27;47161;-61
2022/10/12 01:02:05;;;;;;;;;10.75;9.75;;;;;15.42;50.91;101763.78;2119181;27;46513;-61
2022/10/12 01:03:08;;;;;;;;;8.00;8.00;;;;;15.41;51.49;101765.56;2117283;27;46475;-62
2022/10/12 01:04:08;;;;;;;;;14.60;11.80;;;;;15.40;51.55;101765.63;2114171;27;46511;-62
2022/10/12 01:05:10;;;;;;;;;13.00;11.00;;;;;15.39;51.17;101764.75;2117234;27;46303;-61
2022/10/12 01:06:11;;;;;;;;;13.00;12.40;;;;;15.39;51.64;101769.22;2122536;27;46480;-63
2022/10/12 01:07:12;;;;;;;;;12.00;12.00;;;;;15.38;51.82;101767.47;2118626;27;45809;-61
2022/10/12 01:08:13;;;;;;;;;12.25;10.75;;;;;15.36;51.68;101778.16;2108515;27;46775;-60
2022/10/12 01:09:13;;;;;;;;;10.50;10.50;;;;;15.35;51.29;101765.72;2108620;27;45753;-61
2022/10/12 01:10:14;;;;;;;;;10.25;10.25;;;;;15.35;51.39;101764.84;2122135;27;45616;-60
2022/10/12 01:11:14;;;;;;;;;13.75;13.50;;;;;15.35;51.42;101765.72;2119479;27;46607;-62
2022/10/12 01:12:15;;;;;;;;;10.33;9.00;;;;;15.34;51.69;101761.28;2122773;27;46549;-62
2022/10/12 01:13:17;;;;;;;;;13.20;12.80;;;;;15.35;51.57;101764.84;2107243;27;46713;-63
2022/10/12 01:14:18;;;;;;;;;16.60;13.60;;;;;15.35;51.73;101762.16;2112876;27;46542;-61
2022/10/12 01:15:18;;;;;;;;;13.50;12.25;;;;;15.35;51.56;101759.47;2116207;27;46785;-62
2022/10/12 01:16:21;;;;;;;;;14.75;12.50;;;;;15.36;51.79;101770.16;2117700;27;46265;-61
2022/10/12 01:17:55;;;;;;;;;13.20;12.00;;;;;15.35;51.18;101757.69;2120202;27;46498;-61
2022/10/12 01:19:14;;;;;;;;;10.40;9.20;;;;;15.36;51.68;101755.91;2117981;27;46517;-63
2022/10/12 01:20:36;;;;;;;;;9.40;8.60;;;;;15.36;51.51;101753.22;2117814;27;46464;-61
2022/10/12 01:21:44;;;;;;;;;7.60;7.40;;;;;15.36;51.68;101756.78;2119106;27;45607;-61
2022/10/12 01:23:03;;;;;;;;;11.80;11.80;;;;;15.36;51.60;101759.44;2116010;27;46364;-62
2022/10/12 01:24:28;;;;;;;;;10.25;9.00;;;;;15.35;51.33;101757.69;2122240;27;46803;-62
2022/10/12 01:25:44;;;;;;;;;9.25;9.25;;;;;15.35;51.43;101751.47;2119965;27;46350;-61
2022/10/12 01:26:47;;;;;;;;;13.40;11.40;;;;;15.33;51.63;101759.53;2115426;27;46628;-63
2022/10/12 01:27:51;;;;;;;;;8.75;8.75;;;;;15.31;51.81;101754.22;2121360;27;46358;-61
2022/10/12 01:29:25;;;;;;;;;8.80;8.80;;;;;15.30;51.74;101755.13;2118563;27;46520;-61
2022/10/12 01:30:35;;;;;;;;;4.50;2.00;;;;;15.31;51.32;101748.00;2113956;27;46949;-63
2022/10/12 01:31:57;;;;;;;;;11.75;11.75;;;;;15.30;51.55;101752.47;2120908;27;46363;-62
2022/10/12 01:33:23;;;;;;;;;10.00;9.25;;;;;15.30;51.97;101754.25;2115627;27;46758;-61
2022/10/12 01:34:39;;;;;;;;;11.80;11.20;;;;;15.29;52.01;101755.19;2116103;27;46295;-61
2022/10/12 01:36:09;;;;;;;;;14.00;11.40;;;;;15.27;51.93;101749.88;2115883;27;46907;-60
2022/10/12 01:37:43;;;;;;;;;9.75;9.50;;;;;15.27;51.70;101749.88;2118782;27;46363;-63
2022/10/12 01:39:02;;;;;;;;;6.60;6.60;;;;;15.25;51.51;101749.03;2114403;27;47051;-60
2022/10/12 01:40:11;;;;;;;;;10.50;8.25;;;;;15.25;52.05;101748.16;2113926;27;45898;-61
2022/10/12 01:41:30;;;;;;;;;14.20;14.20;;;;;15.23;52.03;101756.19;2114953;27;46890;-61
2022/10/12 01:42:35;;;;;;;;;13.00;12.60;;;;;15.22;51.92;101756.25;2114356;27;46342;-62
2022/10/12 01:43:40;;;;;;;;;12.20;11.80;;;;;15.21;51.66;101750.00;2115149;27;46392;-63
2022/10/12 01:44:40;;;;;;;;;10.75;10.00;;;;;15.20;51.77;101750.94;2119243;27;46640;-62
2022/10/12 01:45:41;;;;;;;;;11.00;10.25;;;;;15.20;51.98;101752.72;2121233;27;46603;-61
2022/10/12 01:46:42;;;;;;;;;13.75;11.75;;;;;15.19;52.06;101754.53;2117153;27;46244;-61
2022/10/12 01:47:51;;;;;;;;;7.80;6.80;;;;;15.18;52.00;101749.22;2117371;27;47069;-62
2022/10/12 01:48:57;;;;;;;;;10.80;9.60;;;;;15.16;51.71;101757.28;2116356;27;47050;-60
2022/10/12 01:50:00;;;;;;;;;11.00;10.00;;;;;15.16;51.85;101746.59;2119729;27;46356;-62
2022/10/12 01:51:01;;;;;;;;;11.40;11.40;;;;;15.16;51.81;101753.72;2119385;27;46500;-61
2022/10/12 01:52:22;;;;;;;;;10.60;10.60;;;;;15.15;51.55;101757.31;2120886;27;46466;-61
2022/10/12 01:53:38;;;;;;;;;12.20;10.80;;;;;15.12;52.19;101755.59;2120355;27;46592;-60
2022/10/12 01:54:53;;;;;;;;;8.00;8.00;;;;;15.10;51.49;101743.16;2118056;27;46652;-62
2022/10/12 01:55:53;;;;;;;;;7.60;7.60;;;;;15.09;51.60;101752.97;2119960;27;47052;-62
2022/10/12 01:57:03;;;;;;;;;9.50;9.50;;;;;15.09;51.84;101752.97;2119824;27;45631;-60
2022/10/12 01:58:25;;;;;;;;;9.25;8.75;;;;;15.08;51.60;101751.22;2112359;27;45690;-62
2022/10/12 01:59:28;;;;;;;;;10.25;8.75;;;;;15.07;51.62;101746.78;2114394;27;45709;-60
2022/10/12 02:00:33;;;;;;;;;7.25;7.25;;;;;15.07;51.66;101751.25;2118229;27;46821;-63
2022/10/12 02:01:51;;;;;;;;;9.00;9.00;;;;;15.06;51.88;101747.72;2121538;27;46278;-62
2022/10/12 02:03:19;;;;;;;;;11.00;9.75;;;;;15.05;51.75;101753.09;2117827;27;46349;-61
2022/10/12 02:04:46;;;;;;;;;9.00;9.00;;;;;15.04;51.95;101744.19;2121313;27;46952;-64
2022/10/12 02:05:57;;;;;;;;;10.25;9.25;;;;;15.05;51.71;101742.41;2119992;27;46433;-61
2022/10/12 02:07:09;;;;;;;;;9.00;9.00;;;;;15.06;51.95;101746.84;2117834;27;46423;-62
2022/10/12 02:08:32;;;;;;;;;10.80;10.80;;;;;15.02;51.95;101736.22;2119309;27;45713;-62
2022/10/12 02:09:34;;;;;;;;;14.75;10.75;;;;;15.03;52.03;101742.44;2121285;27;46465;-61
2022/10/12 02:10:58;;;;;;;;;10.20;10.20;;;;;15.03;51.96;101742.44;2118434;27;45808;-64
2022/10/12 02:12:05;;;;;;;;;8.50;7.50;;;;;15.01;51.76;101736.25;2086479;28;46034;-63
2022/10/12 02:13:10;;;;;;;;;10.60;9.60;;;;;14.99;51.64;101738.97;2085687;28;45110;-61
2022/10/12 02:14:25;;;;;;;;;7.80;7.80;;;;;14.99;51.88;101738.06;2087129;28;46662;-63
2022/10/12 02:15:26;;;;;;;;;10.40;10.40;;;;;14.97;51.62;101740.78;2082659;28;45846;-61
2022/10/12 02:16:33;;;;;;;;;9.75;9.50;;;;;14.96;51.79;101740.81;2085914;28;46962;-63
2022/10/12 02:17:34;;;;;;;;;9.25;9.25;;;;;14.95;51.74;101739.06;2088291;28;46427;-62
2022/10/12 02:18:39;;;;;;;;;11.00;10.40;;;;;14.92;51.84;101737.34;2086341;28;46874;-62
2022/10/12 02:19:46;;;;;;;;;9.50;9.50;;;;;14.92;51.76;101740.03;2085139;28;46540;-62
2022/10/12 02:20:50;;;;;;;;;8.25;8.25;;;;;14.92;51.67;101740.03;2085658;28;46580;-61
2022/10/12 02:21:54;;;;;;;;;12.40;8.80;;;;;14.91;52.16;101735.59;2086811;28;46280;-61
2022/10/12 02:22:54;;;;;;;;;8.20;8.20;;;;;14.91;51.64;101742.72;2083387;28;46271;-63
2022/10/12 02:23:58;;;;;;;;;8.00;7.00;;;;;14.90;51.89;101735.63;2085321;28;46356;-60
2022/10/12 02:25:03;;;;;;;;;8.00;7.75;;;;;14.88;52.00;101735.66;2085823;28;46844;-62
2022/10/12 02:26:04;;;;;;;;;9.75;9.75;;;;;14.87;51.92;101733.03;2085406;28;46720;-63
2022/10/12 02:27:08;;;;;;;;;9.60;9.60;;;;;14.86;52.00;101737.47;2085710;28;47176;-63
2022/10/12 02:28:12;;;;;;;;;9.20;9.00;;;;;14.84;51.96;101728.63;2087176;28;46702;-61
2022/10/12 02:29:18;;;;;;;;;9.60;9.60;;;;;14.84;51.70;101733.09;2086177;28;46371;-62
2022/10/12 02:30:18;;;;;;;;;9.40;9.40;;;;;14.82;52.15;101730.44;2087337;28;46358;-63
2022/10/12 02:31:21;;;;;;;;;10.75;10.50;;;;;14.82;51.72;101725.09;2083161;28;46763;-60
2022/10/12 02:32:42;;;;;;;;;8.40;8.40;;;;;14.80;51.83;101731.41;2086883;28;46351;-61
2022/10/12 02:33:50;;;;;;;;;10.60;10.60;;;;;14.79;51.61;101724.31;2087355;28;47048;-62
2022/10/12 02:34:56;;;;;;;;;11.80;10.20;;;;;14.79;52.38;101721.63;2088077;28;46508;-61
2022/10/12 02:36:04;;;;;;;;;9.50;9.50;;;;;14.78;52.05;101722.56;2086311;28;46933;-62
2022/10/12 02:37:10;;;;;;;;;11.75;10.75;;;;;14.77;51.91;101724.34;2085429;28;46543;-62
2022/10/12 02:38:36;;;;;;;;;13.25;10.25;;;;;14.77;52.30;101720.78;2087050;28;46839;-61
2022/10/12 02:39:49;;;;;;;;;12.75;10.75;;;;;14.75;52.28;101715.50;2087149;28;47037;-62
2022/10/12 02:40:56;;;;;;;;;12.00;12.00;;;;;14.74;51.98;101716.41;2085845;28;47050;-62
2022/10/12 02:42:02;;;;;;;;;11.50;9.75;;;;;14.74;52.39;101711.06;2086035;28;46540;-61
2022/10/12 02:43:35;;;;;;;;;9.50;9.50;;;;;14.75;51.83;101722.63;2091004;28;46249;-62
2022/10/12 02:44:39;;;;;;;;;12.75;12.00;;;;;14.75;52.42;101712.81;2084615;28;45355;-63
2022/10/12 02:45:43;;;;;;;;;10.50;10.00;;;;;14.76;51.98;101706.56;2086730;28;47241;-62
2022/10/12 02:46:46;;;;;;;;;10.00;8.75;;;;;14.76;52.27;101705.69;2087418;28;46396;-59
2022/10/12 02:47:51;;;;;;;;;8.00;8.00;;;;;14.78;52.01;101714.53;2090838;28;45835;-62
2022/10/12 02:48:55;;;;;;;;;13.40;13.00;;;;;14.77;52.09;101711.00;2081317;28;46560;-60
2022/10/12 02:49:58;;;;;;;;;14.20;11.80;;;;;14.78;52.01;101706.53;2097340;28;46582;-61
2022/10/12 02:51:00;;;;;;;;;12.80;12.80;;;;;14.78;51.99;101709.19;2100918;28;46305;-60
2022/10/12 02:52:04;;;;;;;;;9.20;9.20;;;;;14.79;52.31;101709.16;2101237;27;46805;-62
2022/10/12 02:53:05;;;;;;;;;15.60;12.00;;;;;14.78;52.08;101709.19;2096688;28;46789;-63
2022/10/12 02:54:05;;;;;;;;;11.20;11.00;;;;;14.77;52.00;101705.63;2090193;28;46575;-62
2022/10/12 02:55:06;;;;;;;;;12.67;12.00;;;;;14.76;52.38;101709.22;2091761;28;46864;-60
2022/10/12 02:56:11;;;;;;;;;12.33;11.67;;;;;14.76;52.17;101705.69;2095053;28;46604;-62
2022/10/12 02:57:11;;;;;;;;;15.25;14.75;;;;;14.74;52.44;101708.41;2093103;28;46365;-61
2022/10/12 02:58:11;;;;;;;;;12.67;11.33;;;;;14.75;52.03;101707.47;2103762;28;47316;-62
2022/10/12 02:59:16;;;;;;;;;10.00;8.33;;;;;14.75;52.46;101704.81;2100944;28;45529;-63
2022/10/12 03:00:17;;;;;;;;;9.25;9.25;;;;;14.75;51.85;101711.94;2103590;28;45368;-62
2022/10/12 03:01:17;;;;;;;;;11.00;10.67;;;;;14.74;52.13;101700.38;2093919;28;47763;-60
2022/10/12 03:02:17;;;;;;;;;13.00;11.25;;;;;14.75;52.24;101703.94;2092803;28;46305;-63
2022/10/12 03:03:18;;;;;;;;;11.00;11.00;;;;;14.76;52.41;101705.69;2100620;27;46320;-62
2022/10/12 03:04:18;;;;;;;;;11.00;9.00;;;;;14.75;52.21;101702.13;2095369;28;45910;-61
2022/10/12 03:05:19;;;;;;;;;11.33;11.33;;;;;14.76;52.42;101697.66;2099844;28;47052;-61
2022/10/12 03:06:19;;;;;;;;;10.33;9.00;;;;;14.77;52.49;101707.44;2101231;28;46407;-61
2022/10/12 03:07:19;;;;;;;;;12.50;12.00;;;;;14.78;52.16;101701.19;2101195;28;45700;-61
2022/10/12 03:08:20;;;;;;;;;11.00;10.67;;;;;14.79;52.08;101700.25;2103284;28;46736;-60
2022/10/12 03:09:20;;;;;;;;;12.00;11.50;;;;;14.80;52.17;101702.88;2098089;28;46654;-60
2022/10/12 03:10:20;;;;;;;;;10.00;10.00;;;;;14.80;52.09;101699.34;2095297;28;46767;-60
2022/10/12 03:11:21;;;;;;;;;12.00;11.75;;;;;14.78;52.43;101707.41;2101004;28;46406;-61
2022/10/12 03:12:21;;;;;;;;;11.67;11.67;;;;;14.77;52.49;101694.94;2104233;28;46473;-62
2022/10/12 03:13:21;;;;;;;;;10.67;9.00;;;;;14.78;52.21;101698.50;2097903;28;46608;-62
2022/10/12 03:14:22;;;;;;;;;13.00;11.00;;;;;14.77;52.22;101694.94;2103539;28;47011;-61
2022/10/12 03:15:22;;;;;;;;;13.33;12.00;;;;;14.75;52.39;101695.91;2101767;28;45903;-59
2022/10/12 03:16:23;;;;;;;;;12.25;11.00;;;;;14.75;52.00;101695.91;2102274;28;46361;-60
2022/10/12 03:17:24;;;;;;;;;9.40;9.40;;;;;14.71;52.26;101698.63;2077987;28;46019;-61
2022/10/12 03:18:24;;;;;;;;;12.25;12.25;;;;;14.69;52.42;101697.78;2077958;28;46036;-63
2022/10/12 03:19:24;;;;;;;;;11.25;11.25;;;;;14.68;52.82;101698.72;2101950;28;46315;-61
2022/10/12 03:20:24;;;;;;;;;11.00;10.00;;;;;14.67;52.66;101696.06;2102539;28;47519;-62
2022/10/12 03:21:25;;;;;;;;;14.75;13.75;;;;;14.66;52.53;101692.53;2099647;28;46908;-60
2022/10/12 03:22:25;;;;;;;;;13.75;12.25;;;;;14.66;52.84;101691.66;2114673;27;46100;-61
2022/10/12 03:23:26;;;;;;;;;11.25;11.00;;;;;14.67;52.83;101691.59;2116480;27;46776;-60
2022/10/12 03:24:26;;;;;;;;;13.50;12.00;;;;;14.66;52.44;101700.53;2120663;27;45551;-62
2022/10/12 03:25:27;;;;;;;;;14.75;12.00;;;;;14.67;52.58;101699.63;2119727;27;46435;-62
2022/10/12 03:26:27;;;;;;;;;13.50;12.50;;;;;14.68;52.69;101698.72;2115468;27;46615;-61
2022/10/12 03:27:27;;;;;;;;;12.50;12.50;;;;;14.68;52.76;101690.69;2119769;27;45542;-61
2022/10/12 03:28:28;;;;;;;;;11.00;11.00;;;;;14.69;52.73;101697.78;2114808;27;45392;-62
2022/10/12 03:29:28;;;;;;;;;10.75;10.25;;;;;14.69;52.39;101691.56;2118382;27;46344;-61
2022/10/12 03:30:28;;;;;;;;;12.50;12.00;;;;;14.70;52.68;101698.66;2120427;27;46932;-61
2022/10/12 03:31:29;;;;;;;;;12.00;12.00;;;;;14.67;52.42;101694.28;2117214;27;46761;-61
2022/10/12 03:32:29;;;;;;;;;13.00;12.33;;;;;14.68;52.62;101700.50;2119317;27;46454;-61
2022/10/12 03:33:30;;;;;;;;;12.00;12.00;;;;;14.68;52.48;101700.50;2102001;28;46510;-60
2022/10/12 03:34:30;;;;;;;;;14.00;11.50;;;;;14.67;52.88;101704.09;2101336;27;46741;-61
2022/10/12 03:35:30;;;;;;;;;13.25;13.25;;;;;14.66;52.81;101700.53;2120601;27;46153;-61
2022/10/12 03:36:31;;;;;;;;;7.00;7.00;;;;;14.65;52.84;101698.78;2115040;27;46966;-59
2022/10/12 03:37:31;;;;;;;;;11.00;11.00;;;;;14.67;52.57;101704.09;2116817;27;46614;-61
2022/10/12 03:38:31;;;;;;;;;13.25;11.00;;;;;14.68;52.95;101700.50;2112895;27;46138;-61
2022/10/12 03:39:32;;;;;;;;;13.00;13.00;;;;;14.67;52.71;101696.94;2118486;27;46090;-60
2022/10/12 03:40:34;;;;;;;;;14.25;12.75;;;;;14.67;52.80;101698.75;2120482;27;46592;-60
2022/10/12 03:41:34;;;;;;;;;15.00;14.00;;;;;14.65;52.61;101695.22;2121152;27;46946;-59
2022/10/12 03:42:35;;;;;;;;;14.75;14.75;;;;;14.64;52.86;101693.47;2120155;27;46593;-61
2022/10/12 03:43:35;;;;;;;;;13.00;13.00;;;;;14.61;52.79;101697.09;2119602;27;45801;-62
2022/10/12 03:44:36;;;;;;;;;14.00;14.00;;;;;14.63;52.87;101697.06;2118406;27;46556;-61
2022/10/12 03:45:36;;;;;;;;;13.67;12.00;;;;;14.62;52.81;101697.97;2117935;27;46593;-62
2022/10/12 03:46:37;;;;;;;;;11.67;11.67;;;;;14.62;52.54;101700.66;2116818;27;46439;-62
2022/10/12 03:47:37;;;;;;;;;13.00;12.00;;;;;14.60;52.77;101694.44;2116025;27;46102;-62
2022/10/12 03:48:37;;;;;;;;;11.67;11.67;;;;;14.58;53.13;101690.94;2117664;27;46175;-61
2022/10/12 03:49:37;;;;;;;;;13.25;13.25;;;;;14.57;52.94;101703.41;2102181;28;46387;-63
2022/10/12 03:50:38;;;;;;;;;10.75;9.75;;;;;14.57;53.32;101697.19;2102341;28;46529;-61
2022/10/12 03:51:39;;;;;;;;;13.80;12.20;;;;;14.56;52.92;101695.44;2115763;27;46875;-60
2022/10/12 03:52:39;;;;;;;;;13.00;11.33;;;;;14.56;53.27;101708.78;2119372;27;46185;-60
2022/10/12 03:53:40;;;;;;;;;13.50;13.50;;;;;14.55;53.34;101701.69;2121391;27;46319;-60
2022/10/12 03:54:40;;;;;;;;;14.67;12.33;;;;;14.53;53.41;101700.84;2116494;27;46864;-62
2022/10/12 03:55:40;;;;;;;;;13.67;11.67;;;;;14.51;53.16;101698.22;2112571;27;45377;-62
2022/10/12 03:56:41;;;;;;;;;14.25;12.25;;;;;14.51;53.01;101702.69;2110188;27;46683;-62
2022/10/12 03:57:41;;;;;;;;;15.50;13.00;;;;;14.52;53.36;101699.09;2118484;27;46844;-63
2022/10/12 03:58:42;;;;;;;;;12.67;12.67;;;;;14.51;53.18;101703.56;2114655;27;45590;-62
2022/10/12 03:59:42;;;;;;;;;13.00;11.67;;;;;14.52;53.75;101707.13;2118038;27;45620;-61
2022/10/12 04:00:42;;;;;;;;;13.25;13.00;;;;;14.53;53.39;101693.72;2120319;27;46261;-62
2022/10/12 04:01:42;;;;;;;;;15.00;14.00;;;;;14.53;53.62;101701.72;2116362;27;46576;-62
2022/10/12 04:02:43;;;;;;;;;8.25;8.00;;;;;14.54;53.53;101697.28;2118065;27;46548;-62
2022/10/12 04:03:43;;;;;;;;;10.25;10.25;;;;;14.54;53.41;101707.94;2121273;27;46502;-62
2022/10/12 04:04:43;;;;;;;;;13.00;13.00;;;;;14.53;53.49;101703.53;2121386;27;45960;-61
2022/10/12 04:05:51;;;;;;;;;14.00;14.00;;;;;14.52;53.74;101701.78;2117150;27;47008;-60
2022/10/12 04:06:51;;;;;;;;;18.40;18.20;;;;;14.53;53.44;101695.50;2120176;27;46332;-60
2022/10/12 04:07:52;;;;;;;;;19.50;17.00;;;;;14.54;53.66;101697.28;2117637;27;46122;-61
2022/10/12 04:08:52;;;;;;;;;13.75;13.75;;;;;14.53;53.63;101695.50;2116435;27;46545;-61
2022/10/12 04:09:52;;;;;;;;;13.75;12.25;;;;;14.52;53.62;101702.66;2102836;28;46377;-61
2022/10/12 04:10:53;;;;;;;;;13.00;12.00;;;;;14.52;53.65;101694.63;2097517;27;46016;-61
2022/10/12 04:11:53;;;;;;;;;10.50;9.50;;;;;14.51;53.56;101700.00;2116450;27;46264;-63
2022/10/12 04:12:55;;;;;;;;;9.25;8.25;;;;;14.51;53.34;101694.66;2117161;27;46394;-61
2022/10/12 04:13:55;;;;;;;;;13.80;12.80;;;;;14.50;53.73;101699.13;2118434;27;45664;-62
2022/10/12 04:14:55;;;;;;;;;10.50;10.50;;;;;14.50;53.59;101698.25;2116081;27;46156;-63
2022/10/12 04:16:00;;;;;;;;;11.75;11.75;;;;;14.50;53.49;101698.25;2121798;27;46489;-61
2022/10/12 04:17:02;;;;;;;;;11.40;10.60;;;;;14.50;53.55;101700.94;2121064;27;45953;-62
2022/10/12 04:18:03;;;;;;;;;12.40;11.80;;;;;14.51;53.83;101702.69;2122220;27;46437;-61
2022/10/12 04:19:03;;;;;;;;;13.25;12.50;;;;;14.51;53.52;101698.22;2102697;28;46251;-62
2022/10/12 04:20:04;;;;;;;;;9.75;9.75;;;;;14.52;53.64;101702.66;2105156;28;45769;-64
2022/10/12 04:21:09;;;;;;;;;17.40;13.40;;;;;14.51;53.81;101692.88;2119086;27;46307;-62
2022/10/12 04:22:10;;;;;;;;;13.40;11.80;;;;;14.51;53.87;101698.22;2119999;27;48116;-61
2022/10/12 04:23:10;;;;;;;;;10.50;10.50;;;;;14.52;53.53;101696.44;2117233;27;46220;-62
2022/10/12 04:24:10;;;;;;;;;12.00;12.00;;;;;14.54;53.90;101699.94;2121093;27;47332;-62
2022/10/12 04:25:11;;;;;;;;;11.25;11.25;;;;;14.55;53.89;101696.34;2119212;27;46562;-62
2022/10/12 04:26:11;;;;;;;;;13.50;12.00;;;;;14.56;53.90;101707.00;2118534;27;46068;-63
2022/10/12 04:27:11;;;;;;;;;12.00;11.25;;;;;14.56;53.68;101709.66;2118486;27;46095;-60
2022/10/12 04:28:12;;;;;;;;;11.75;11.75;;;;;14.56;53.86;101708.78;2123311;27;46408;-62
2022/10/12 04:29:12;;;;;;;;;15.00;12.75;;;;;14.55;53.95;101709.72;2120155;27;46703;-61
2022/10/12 04:30:13;;;;;;;;;11.00;11.00;;;;;14.54;53.86;101708.84;2121263;27;46665;-61
2022/10/12 04:31:13;;;;;;;;;12.50;11.25;;;;;14.54;53.58;101713.28;2119810;27;46552;-60
2022/10/12 04:32:13;;;;;;;;;12.25;11.25;;;;;14.52;53.46;101710.66;2122304;27;46587;-60
2022/10/12 04:33:14;;;;;;;;;12.50;11.00;;;;;14.52;53.59;101710.66;2120066;27;46361;-62
2022/10/12 04:34:14;;;;;;;;;11.00;10.75;;;;;14.51;53.42;101711.56;2120993;27;46680;-62
2022/10/12 04:35:15;;;;;;;;;12.50;11.00;;;;;14.52;53.30;101715.13;2118399;27;46878;-61
2022/10/12 04:36:15;;;;;;;;;11.25;10.50;;;;;14.51;53.40;101716.91;2115917;27;46749;-60
2022/10/12 04:37:16;;;;;;;;;12.50;11.25;;;;;14.50;53.54;101712.50;2097461;28;45195;-61
2022/10/12 04:38:16;;;;;;;;;10.33;10.33;;;;;14.50;53.60;101717.84;2100267;28;46122;-61
2022/10/12 04:39:16;;;;;;;;;11.00;11.00;;;;;14.51;53.41;101724.06;2117279;27;46512;-62
2022/10/12 04:40:17;;;;;;;;;13.00;11.75;;;;;14.50;53.72;101716.97;2122612;27;46540;-63
2022/10/12 04:41:18;;;;;;;;;16.00;13.25;;;;;14.48;53.65;101716.97;2115901;27;45539;-62
2022/10/12 04:42:18;;;;;;;;;13.25;10.25;;;;;14.46;53.61;101717.91;2115216;27;46642;-62
2022/10/12 04:43:18;;;;;;;;;10.25;9.00;;;;;14.45;53.52;101719.72;2111622;27;46965;-61
2022/10/12 04:44:20;;;;;;;;;12.25;11.25;;;;;14.44;53.55;101712.59;2110647;27;46580;-63
2022/10/12 04:45:21;;;;;;;;;16.20;13.40;;;;;14.45;53.28;101721.50;2117672;27;46365;-61
2022/10/12 04:46:21;;;;;;;;;13.20;10.20;;;;;14.43;53.57;101724.19;2117025;27;46397;-63
2022/10/12 04:47:22;;;;;;;;;12.00;11.75;;;;;14.42;53.22;101712.63;2120965;27;46453;-64
2022/10/12 04:48:23;;;;;;;;;13.75;13.75;;;;;14.41;53.70;101713.53;2125325;27;47511;-62
2022/10/12 04:49:23;;;;;;;;;16.20;12.40;;;;;14.40;53.59;101711.78;2123681;27;45644;-63
2022/10/12 04:50:23;;;;;;;;;12.00;11.25;;;;;14.40;53.77;101714.44;2121867;27;46522;-61
2022/10/12 04:51:24;;;;;;;;;13.25;10.50;;;;;14.39;53.67;101715.34;2121166;27;46966;-62
2022/10/12 04:52:24;;;;;;;;;10.00;8.25;;;;;14.41;53.56;101712.66;2108712;27;46204;-62